Time;durP1;ratioP1;P1;durP2;ratioP2;P2;SDS_P1;SDS_P2;PMS_P1;PMS_P2;Temp;Humidity;BMP_temperature;BMP_pressure;BME280_temperature;BME280_humidity;BME280_pressure;Samples;Min_cycle;Max_cycle;Signal;HPM_P1;HPM_P2
2021/07/01 00:01:07;;;;;;;;;;;12.80;99.90;;;11.79;100.00;95617.78;10414618;28;2141;-78
2021/07/01 00:06:10;;;;;;;;;;;12.90;99.90;;;11.91;100.00;95615.53;10423991;28;2090;-80
2021/07/01 00:11:13;;;;;;;;;;;12.80;99.90;;;11.73;100.00;95618.91;10379456;28;2286;-80
2021/07/01 00:16:15;;;;;;;;;;;12.70;99.90;;;11.69;100.00;95617.88;10406422;28;2031;-80
2021/07/01 00:21:18;;;;;;;;;;;12.70;99.90;;;11.62;100.00;95605.53;10393031;28;2097;-79
2021/07/01 00:26:21;;;;;;;;;;;12.60;99.90;;;11.57;100.00;95610.16;10410534;28;2199;-80
2021/07/01 00:31:24;;;;;;;;;;;12.60;99.90;;;11.46;100.00;95611.38;10414105;28;2175;-81
2021/07/01 00:36:27;;;;;;;;;;;12.50;99.90;;;11.44;100.00;95611.63;10388627;28;2187;-79
2021/07/01 00:41:29;;;;;;;;;;;12.50;99.90;;;11.46;100.00;95620.25;10404251;28;1788;-82
2021/07/01 00:46:33;;;;;;;;;;;12.40;99.90;;;11.42;100.00;95619.19;10410937;28;2166;-80
2021/07/01 00:51:35;;;;;;;;;;;12.40;99.90;;;11.57;100.00;95610.16;10427823;28;2102;-81
2021/07/01 00:56:38;;;;;;;;;;;12.50;99.90;;;11.60;100.00;95615.00;10403017;28;2137;-80
2021/07/01 01:01:41;;;;;;;;;;;12.60;99.90;;;11.56;100.00;95614.75;10409805;28;2303;-81
2021/07/01 01:06:44;;;;;;;;;;;12.60;99.90;;;11.48;100.00;95609.97;10415254;28;2073;-83
2021/07/01 01:11:46;;;;;;;;;;;12.50;99.90;;;11.47;100.00;95610.28;10439403;28;2110;-81
2021/07/01 01:16:49;;;;;;;;;;;12.50;99.90;;;11.54;100.00;95610.75;10415975;28;2187;-82
2021/07/01 01:21:52;;;;;;;;;;;12.60;99.90;;;11.43;99.27;95620.78;10436001;28;2213;-79
2021/07/01 01:26:55;;;;;;;;;;;12.50;99.90;;;11.48;100.00;95618.06;10417050;28;2110;-81
2021/07/01 01:31:58;;;;;;;;;;;12.40;99.90;;;11.51;100.00;95611.28;10397507;28;1899;-80
2021/07/01 01:37:01;;;;;;;;;;;12.50;99.90;;;11.55;100.00;95613.16;10402690;28;2379;-81
2021/07/01 01:42:04;;;;;;;;;;;12.60;99.90;;;11.59;100.00;95616.09;10400153;28;2125;-79
2021/07/01 01:47:07;;;;;;;;;;;12.60;99.90;;;11.65;100.00;95617.66;10417672;28;2098;-82
2021/07/01 01:52:10;;;;;;;;;;;12.60;99.90;;;11.67;100.00;95610.06;10404870;28;2534;-81
2021/07/01 01:57:12;;;;;;;;;;;12.60;99.90;;;11.73;100.00;95608.16;10399360;28;2086;-82
2021/07/01 02:02:23;;;;;;;;;;;12.70;99.90;;;11.74;100.00;95613.22;10428676;28;1487;-81
2021/07/01 02:07:26;;;;;;;;;;;12.70;99.90;;;11.64;100.00;95610.63;10408419;28;1979;-80
2021/07/01 02:12:30;;;;;;;;;;;12.70;99.90;;;11.68;100.00;95610.88;10433720;28;2280;-79
2021/07/01 02:17:34;;;;;;;;;;;12.70;99.90;;;11.72;100.00;95612.72;10425668;28;2068;-80
2021/07/01 02:22:38;;;;;;;;;;;12.70;99.90;;;11.70;100.00;95609.50;10411234;28;2080;-82
2021/07/01 02:27:41;;;;;;;;;;;12.70;99.90;;;11.75;100.00;95605.97;10427505;28;2099;-81
2021/07/01 02:32:44;;;;;;;;;;;12.70;99.90;;;11.73;100.00;95608.94;10417905;28;2385;-85
2021/07/01 02:38:05;;;;;;;;;;;12.80;99.90;;;11.68;100.00;95606.28;10395033;28;2052;-80
2021/07/01 02:43:08;;;;;;;;;;;12.80;99.90;;;11.73;100.00;95606.25;10408466;28;2218;-80
2021/07/01 02:48:11;;;;;;;;;;;12.70;99.90;;;11.85;100.00;95622.06;10404646;28;2101;-80
2021/07/01 02:53:14;;;;;;;;;;;12.80;99.90;;;11.90;100.00;95616.63;10414761;28;1971;-80
2021/07/01 02:58:17;;;;;;;;;;;12.80;99.90;;;12.07;100.00;95619.66;10429576;28;1559;-82
2021/07/01 03:03:20;;;;;;;;;;;13.00;99.90;;;12.08;100.00;95631.22;10414721;28;1611;-80
2021/07/01 03:08:23;;;;;;;;;;;13.00;99.90;;;12.03;100.00;95623.22;10404789;28;1987;-79
2021/07/01 03:13:30;;;;;;;;;;;13.10;99.90;;;12.16;100.00;95622.53;10418711;28;2186;-81
2021/07/01 03:18:34;;;;;;;;;;;13.10;99.90;;;12.01;99.17;95622.69;10410490;28;2234;-80
2021/07/01 03:23:36;;;;;;;;;;;13.00;99.90;;;11.99;99.13;95627.56;10425378;28;2135;-81
2021/07/01 03:28:39;;;;;;;;;;;13.00;99.90;;;12.03;99.33;95628.63;10431993;28;2126;-79
2021/07/01 03:33:43;;;;;;;;;;;13.00;99.90;;;11.96;98.37;95628.94;10430431;28;2076;-83
2021/07/01 03:38:46;;;;;;;;;;;13.00;99.90;;;11.89;100.00;95629.25;10423043;28;1564;-82
2021/07/01 03:43:52;;;;;;;;;;;12.90;99.90;;;11.94;100.00;95638.38;10429187;28;2085;-81
2021/07/01 03:48:55;;;;;;;;;;;12.90;99.90;;;12.01;100.00;95633.47;10411369;28;2050;-82
2021/07/01 03:53:58;;;;;;;;;;;13.00;99.90;;;12.03;100.00;95634.00;10390873;28;2055;-81
2021/07/01 03:59:01;;;;;;;;;;;13.00;99.90;;;12.15;100.00;95639.75;10420572;28;2205;-80
2021/07/01 04:04:04;;;;;;;;;;;13.10;99.90;;;12.19;99.10;95635.41;10417598;28;2224;-81
2021/07/01 04:09:07;;;;;;;;;;;13.20;99.90;;;12.31;99.69;95643.09;10416540;28;2124;-81
2021/07/01 04:14:10;;;;;;;;;;;13.20;99.90;;;12.39;98.83;95647.84;10411404;28;2019;-81
2021/07/01 04:19:33;;;;;;;;;;;13.30;99.90;;;12.26;100.00;95643.97;10433955;28;2030;-80
2021/07/01 04:24:35;;;;;;;;;;;13.30;99.90;;;12.16;100.00;95654.88;10421653;28;1734;-81
2021/07/01 04:29:38;;;;;;;;;;;13.20;99.90;;;12.06;100.00;95649.56;10426037;28;2120;-80
2021/07/01 04:34:41;;;;;;;;;;;13.10;99.90;;;12.09;100.00;95654.41;10426727;28;2054;-79
2021/07/01 04:39:44;;;;;;;;;;;13.00;99.90;;;12.07;100.00;95651.97;10417487;28;2204;-81
2021/07/01 04:44:47;;;;;;;;;;;13.00;99.90;;;12.13;100.00;95655.44;10434266;28;2297;-82
2021/07/01 04:49:50;;;;;;;;;;;13.10;99.90;;;12.18;100.00;95650.00;10425148;28;2122;-78
2021/07/01 04:54:52;;;;;;;;;;;13.10;99.90;;;12.22;100.00;95652.94;10422908;28;1960;-79
2021/07/01 04:59:55;;;;;;;;;;;13.20;99.90;;;12.18;100.00;95655.38;10402640;28;2121;-80
2021/07/01 05:04:58;;;;;;;;;;;13.20;99.90;;;12.23;100.00;95660.72;10413429;28;1253;-81
2021/07/01 05:10:01;;;;;;;;;;;13.20;99.90;;;12.37;99.54;95656.25;10419177;28;2160;-80
2021/07/01 05:15:04;;;;;;;;;;;13.30;99.90;;;12.50;99.56;95659.31;10400896;28;2074;-80
2021/07/01 05:20:07;;;;;;;;;;;13.40;99.90;;;12.51;99.90;95669.81;10414723;28;2160;-80
2021/07/01 05:25:09;;;;;;;;;;;13.40;99.90;;;12.56;100.00;95666.28;10398788;28;1710;-79
2021/07/01 05:30:12;;;;;;;;;;;13.50;99.90;;;12.79;100.00;95673.53;10393889;28;2128;-80
2021/07/01 05:35:15;;;;;;;;;;;13.60;99.90;;;12.99;100.00;95665.16;10395155;28;2053;-79
2021/07/01 05:40:21;;;;;;;;;;;13.70;99.90;;;12.92;100.00;95672.81;10395258;28;2077;-78
2021/07/01 05:45:23;;;;;;;;;;;13.80;99.90;;;12.86;100.00;95668.59;10392681;28;2191;-77
2021/07/01 05:50:26;;;;;;;;;;;13.80;99.90;;;12.58;100.00;95672.97;10451311;28;2034;-80
2021/07/01 05:55:29;;;;;;;;;;;13.70;99.90;;;12.64;100.00;95673.72;10389641;28;2114;-79
2021/07/01 06:00:32;;;;;;;;;;;13.60;99.90;;;12.65;100.00;95683.41;10404445;28;2144;-79
2021/07/01 06:05:34;;;;;;;;;;;13.60;99.90;;;12.87;100.00;95689.06;10404058;28;2161;-79
2021/07/01 06:10:37;;;;;;;;;;;13.70;99.90;;;12.98;99.61;95685.16;10414906;28;2207;-80
2021/07/01 06:15:40;;;;;;;;;;;13.70;99.90;;;13.23;97.98;95681.31;10403175;28;2035;-80
2021/07/01 06:20:42;;;;;;;;;;;13.90;99.90;;;13.81;96.43;95682.84;10433616;28;2010;-80
2021/07/01 06:25:45;;;;;;;;;;;14.30;99.90;;;13.81;94.86;95682.84;10416890;28;2064;-80
2021/07/01 06:30:48;;;;;;;;;;;14.60;99.90;;;13.60;91.36;95686.97;10412447;28;2007;-78
2021/07/01 06:35:51;;;;;;;;;;;14.50;99.90;;;13.75;93.56;95700.22;10436910;28;2213;-79
2021/07/01 06:40:54;;;;;;;;;;;14.50;99.90;;;13.93;91.31;95691.28;10442586;28;2166;-78
2021/07/01 06:45:57;;;;;;;;;;;14.60;99.90;;;14.07;92.64;95704.81;10399576;28;1515;-78
2021/07/01 06:51:00;;;;;;;;;;;14.80;99.90;;;14.18;89.51;95700.81;10391368;28;2136;-78
2021/07/01 06:56:03;;;;;;;;;;;15.00;99.90;;;14.01;89.13;95706.00;10413857;28;1630;-78
2021/07/01 07:01:05;;;;;;;;;;;15.00;99.90;;;14.39;91.22;95714.78;10414992;28;1914;-76
2021/07/01 07:06:08;;;;;;;;;;;15.10;99.90;;;14.30;90.87;95708.47;10419000;28;2246;-78
2021/07/01 07:11:11;;;;;;;;;;;15.20;99.90;;;14.31;89.67;95712.75;10412505;28;2071;-77
2021/07/01 07:16:14;;;;;;;;;;;15.10;99.90;;;14.42;87.31;95716.88;10415692;28;2066;-76
2021/07/01 07:21:18;;;;;;;;;;;15.20;99.90;;;14.35;89.30;95721.88;10420471;28;2083;-77
2021/07/01 07:26:20;;;;;;;;;;;15.20;99.90;;;14.45;88.68;95719.00;10413810;28;2007;-76
2021/07/01 07:31:24;;;;;;;;;;;15.20;99.90;;;14.46;89.06;95726.03;10400927;28;1989;-76
2021/07/01 07:36:27;;;;;;;;;;;15.30;99.90;;;14.57;87.94;95724.75;10414260;28;2086;-77
2021/07/01 07:41:30;;;;;;;;;;;15.30;99.90;;;14.83;85.55;95724.25;10412274;28;2195;-78
2021/07/01 07:46:33;;;;;;;;;;;15.60;99.90;;;14.70;87.04;95720.44;10415434;28;2230;-78
2021/07/01 07:51:36;;;;;;;;;;;15.60;99.90;;;14.63;88.26;95725.44;10411802;28;2199;-78
2021/07/01 07:56:38;;;;;;;;;;;15.40;99.90;;;14.58;88.23;95722.84;10413764;28;1999;-79
2021/07/01 08:01:41;;;;;;;;;;;15.40;99.90;;;14.75;85.98;95719.53;10403143;28;2093;-76
2021/07/01 08:06:44;;;;;;;;;;;15.50;99.90;;;14.64;85.57;95727.06;10393913;28;2034;-81
2021/07/01 08:11:47;;;;;;;;;;;15.50;99.90;;;14.41;85.48;95722.59;10402108;28;2107;-78
2021/07/01 08:16:49;;;;;;;;;;;15.40;99.90;;;14.33;88.95;95722.19;10408559;28;2080;-77
2021/07/01 08:21:52;;;;;;;;;;;15.30;99.90;;;14.39;86.91;95720.19;10422743;28;2080;-76
2021/07/01 08:26:55;;;;;;;;;;;15.20;99.90;;;14.29;87.23;95725.78;10415132;28;2170;-83
2021/07/01 08:31:58;;;;;;;;;;;15.10;99.90;;;14.80;86.95;95720.22;10441218;28;2053;-79
2021/07/01 08:37:01;;;;;;;;;;;15.30;99.90;;;15.34;82.37;95723.97;10439846;28;2180;-83
2021/07/01 08:42:04;;;;;;;;;;;15.80;99.90;;;15.72;79.99;95722.91;10461390;28;2003;-82
2021/07/01 08:47:07;;;;;;;;;;;16.10;99.90;;;15.74;79.92;95731.50;10430386;28;2133;-82
2021/07/01 08:52:11;;;;;;;;;;;16.50;99.90;;;15.47;79.80;95733.19;10435192;28;2057;-84
2021/07/01 08:57:13;;;;;;;;;;;16.40;99.90;;;15.39;81.35;95736.59;10424899;28;2047;-80
2021/07/01 09:02:16;;;;;;;;;;;16.30;99.90;;;15.78;80.04;95732.50;10415272;28;2047;-81
2021/07/01 09:07:19;;;;;;;;;;;16.40;99.90;;;15.91;78.71;95737.06;10429515;28;1561;-82
2021/07/01 09:12:22;;;;;;;;;;;16.70;99.90;;;15.59;79.96;95736.16;10416916;28;1887;-84
2021/07/01 09:17:26;;;;;;;;;;;16.60;99.90;;;15.47;83.71;95733.19;10407127;28;1932;-82
2021/07/01 09:22:29;;;;;;;;;;;16.50;99.90;;;14.81;89.96;95735.38;10424366;28;1665;-83
2021/07/01 09:27:32;;;;;;;;;;;16.10;99.90;;;14.59;93.18;95738.78;10414968;28;1988;-82
2021/07/01 09:32:37;;;;;;;;;;;15.70;99.90;;;14.13;94.05;95748.78;10424312;28;1983;-83
2021/07/01 09:37:40;;;;;;;;;;;15.40;99.90;;;14.12;95.85;95757.97;10409859;28;2033;-81
2021/07/01 09:42:43;;;;;;;;;;;15.20;99.90;;;14.50;97.73;95755.97;10407688;28;2155;-83
2021/07/01 09:47:47;;;;;;;;;;;15.30;99.90;;;15.11;95.46;95752.91;10413075;28;2131;-83
2021/07/01 09:52:49;;;;;;;;;;;15.60;99.90;;;15.51;92.27;95755.81;10415823;28;2084;-81
2021/07/01 09:57:52;;;;;;;;;;;16.10;99.90;;;16.27;86.50;95747.00;10381875;28;2136;-81
2021/07/01 10:02:55;;;;;;;;;;;16.60;99.90;;;17.16;81.80;95749.50;10392360;28;2231;-79
2021/07/01 10:07:58;;;;;;;;;;;17.30;99.90;;;17.45;78.98;95739.97;10405119;28;2216;-81
2021/07/01 10:13:01;;;;;;;;;;;17.90;99.90;;;17.58;75.11;95735.50;10413948;28;2031;-84
2021/07/01 10:18:04;;;;;;;;;;;18.20;99.90;;;18.22;75.34;95731.03;10450109;28;2043;-83
2021/07/01 10:23:25;;;;;;;;;;;18.50;99.90;;;18.00;71.52;95731.19;10458319;28;1987;-83
2021/07/01 10:28:30;;;;;;;;;;;18.80;99.90;;;17.87;71.99;95730.25;10485632;28;1330;-83
2021/07/01 10:33:33;;;;;;;;;;;18.50;99.90;;;17.43;74.15;95736.75;10428098;28;2193;-85
2021/07/01 10:38:36;;;;;;;;;;;18.30;99.90;;;17.65;71.74;95733.91;10428698;28;2102;-85
2021/07/01 10:43:39;;;;;;;;;;;18.30;99.90;;;18.27;71.24;95728.13;10443812;28;1299;-84
2021/07/01 10:48:42;;;;;;;;;;;18.50;99.90;;;18.35;70.30;95735.47;10422902;28;1654;-84
2021/07/01 10:53:46;;;;;;;;;;;18.80;99.90;;;18.35;72.03;95734.66;10413538;28;2027;-82
2021/07/01 10:58:49;;;;;;;;;;;18.90;99.90;;;19.10;67.43;95724.16;10411986;28;1941;-83
2021/07/01 11:03:52;;;;;;;;;;;19.30;99.90;;;18.81;64.76;95724.94;10427719;28;1753;-85
2021/07/01 11:08:59;;;;;;;;;;;19.70;99.90;;;19.35;63.58;95727.88;10426169;28;1959;-82
2021/07/01 11:14:06;;;;;;;;;;;19.80;99.90;;;20.48;63.59;95719.53;10425312;28;1981;-80
2021/07/01 11:19:09;;;;;;;;;;;20.80;99.90;;;20.21;60.42;95721.72;10426586;28;2129;-83
2021/07/01 11:24:12;;;;;;;;;;;21.20;99.90;;;19.94;63.70;95723.09;10419344;28;2083;-85
2021/07/01 11:29:15;;;;;;;;;;;20.90;99.90;;;19.08;64.13;95720.94;10416242;28;2119;-83
2021/07/01 11:34:18;;;;;;;;;;;20.30;99.90;;;18.80;64.14;95713.25;10424803;28;1951;-84
2021/07/01 11:39:21;;;;;;;;;;;19.80;99.90;;;18.55;64.76;95716.84;10428205;28;2004;-83
2021/07/01 11:44:24;;;;;;;;;;;19.50;99.90;;;17.97;65.35;95731.84;10408794;28;2064;-83
2021/07/01 11:49:27;;;;;;;;;;;19.00;99.90;;;17.90;67.99;95715.22;10417903;28;2052;-83
2021/07/01 11:54:30;;;;;;;;;;;18.60;99.90;;;18.04;65.82;95710.41;10419388;28;2119;-83
2021/07/01 11:59:33;;;;;;;;;;;18.80;99.90;;;18.53;63.43;95719.91;10432239;28;2174;-85
2021/07/01 12:04:36;;;;;;;;;;;19.00;99.90;;;18.60;62.25;95720.19;10433484;28;2119;-84
2021/07/01 12:09:39;;;;;;;;;;;19.20;99.90;;;19.21;60.64;95716.41;10432878;28;2046;-79
2021/07/01 12:14:44;;;;;;;;;;;19.50;99.90;;;19.52;60.84;95716.03;10427130;28;2233;-84
2021/07/01 12:19:47;;;;;;;;;;;19.90;99.90;;;18.66;62.04;95714.56;10393909;28;2025;-84
2021/07/01 12:24:49;;;;;;;;;;;19.80;99.90;;;18.18;64.73;95718.38;10424484;28;2030;-84
2021/07/01 12:29:52;;;;;;;;;;;19.30;99.90;;;16.95;81.76;95726.75;10427609;28;2082;-83
2021/07/01 12:34:55;;;;;;;;;;;18.80;99.90;;;16.27;88.77;95734.25;10426055;28;1978;-79
2021/07/01 12:39:59;;;;;;;;;;;17.90;99.90;;;15.48;91.30;95726.66;10413192;28;2073;-83
2021/07/01 12:45:02;;;;;;;;;;;17.00;99.90;;;15.29;93.60;95720.59;10416969;28;2107;-81
2021/07/01 12:50:07;;;;;;;;;;;16.50;99.90;;;15.21;94.29;95732.13;10434042;28;3353;-83
2021/07/01 12:55:10;;;;;;;;;;;16.20;99.90;;;15.37;90.33;95736.09;10430802;28;2036;-84
2021/07/01 13:00:12;;;;;;;;;;;16.20;99.90;;;15.98;89.24;95732.00;10421342;28;2168;-80
2021/07/01 13:05:15;;;;;;;;;;;16.60;99.90;;;15.50;91.23;95737.97;10437706;28;2088;-82
2021/07/01 13:10:18;;;;;;;;;;;16.60;99.90;;;15.91;94.05;95739.78;10413863;28;2380;-80
2021/07/01 13:15:21;;;;;;;;;;;16.60;99.90;;;15.85;91.74;95743.72;10412173;28;2092;-81
2021/07/01 13:20:24;;;;;;;;;;;16.80;99.90;;;15.48;88.84;95748.31;10425000;28;2100;-80
2021/07/01 13:25:27;;;;;;;;;;;16.60;99.90;;;15.48;89.14;95750.22;10409575;28;2275;-84
2021/07/01 13:30:30;;;;;;;;;;;16.50;99.90;;;15.83;90.92;95751.34;10411083;28;2226;-83
2021/07/01 13:35:33;;;;;;;;;;;16.40;99.90;;;16.16;91.33;95755.44;10405092;28;2363;-82
2021/07/01 13:40:35;;;;;;;;;;;16.70;99.90;;;16.99;84.20;95749.47;10406012;28;2055;-82
2021/07/01 13:45:38;;;;;;;;;;;17.30;99.90;;;17.85;79.50;95743.38;10437297;28;2134;-85
2021/07/01 13:50:41;;;;;;;;;;;17.90;99.90;;;17.63;75.15;95748.94;10411691;28;2021;-84
2021/07/01 13:55:45;;;;;;;;;;;18.30;99.90;;;17.37;79.00;95751.59;10442397;28;2052;-86
2021/07/01 14:00:48;;;;;;;;;;;18.10;99.90;;;17.61;75.81;95754.69;10455366;28;2083;-85
2021/07/01 14:05:52;;;;;;;;;;;18.10;99.90;;;17.41;77.81;95749.88;10417804;28;1488;-86
2021/07/01 14:10:55;;;;;;;;;;;18.10;99.90;;;17.90;77.88;95739.69;10436865;28;2023;-86
2021/07/01 14:15:58;;;;;;;;;;;18.30;99.90;;;17.79;73.92;95737.28;10426760;28;2293;-86
2021/07/01 14:21:03;;;;;;;;;;;18.50;99.90;;;17.41;76.42;95739.00;10428623;28;2121;-86
2021/07/01 14:26:06;;;;;;;;;;;18.30;99.90;;;16.62;82.42;95740.66;10431612;28;2073;-87
2021/07/01 14:31:09;;;;;;;;;;;17.90;99.90;;;15.78;86.63;95748.78;10450002;28;2120;-85
2021/07/01 14:36:12;;;;;;;;;;;17.30;99.90;;;14.37;94.26;95781.88;10439497;28;4012;-83
2021/07/01 14:41:15;;;;;;;;;;;16.20;99.90;;;13.71;97.53;95781.06;10400648;28;2145;-83
2021/07/01 14:46:20;;;;;;;;;;;15.10;99.90;;;13.45;100.00;95785.22;10431459;28;2114;-83
2021/07/01 14:51:23;;;;;;;;;;;14.50;99.90;;;13.42;100.00;95793.88;10421232;28;2222;-84
2021/07/01 14:56:25;;;;;;;;;;;14.30;99.90;;;13.50;100.00;95790.56;10426428;28;2121;-83
2021/07/01 15:01:28;;;;;;;;;;;14.20;99.90;;;13.51;100.00;95786.75;10406934;28;2123;-84
2021/07/01 15:06:32;;;;;;;;;;;14.30;99.90;;;13.79;100.00;95776.88;10398885;28;2065;-81
2021/07/01 15:11:35;;;;;;;;;;;14.40;99.90;;;14.25;100.00;95789.66;10421510;28;2161;-83
2021/07/01 15:16:38;;;;;;;;;;;14.80;99.90;;;14.57;96.90;95783.47;10418765;28;2054;-85
2021/07/01 15:21:41;;;;;;;;;;;15.10;99.90;;;14.82;98.27;95777.59;10418193;28;2000;-83
2021/07/01 15:26:44;;;;;;;;;;;15.40;99.90;;;14.79;96.29;95788.19;10416259;28;2007;-82
2021/07/01 15:31:47;;;;;;;;;;;15.50;99.90;;;14.86;98.04;95794.00;10448455;28;1933;-84
2021/07/01 15:36:50;;;;;;;;;;;15.60;99.90;;;14.80;98.38;95789.78;10443306;28;1996;-83
2021/07/01 15:41:53;;;;;;;;;;;15.50;99.90;;;14.85;98.51;95792.41;10440670;28;1798;-83
2021/07/01 15:46:56;;;;;;;;;;;15.50;99.90;;;14.89;99.12;95788.00;10438723;28;2060;-84
2021/07/01 15:51:59;;;;;;;;;;;15.60;99.90;;;14.75;100.00;95781.75;10420867;28;1352;-81
2021/07/01 15:57:05;;;;;;;;;;;15.60;99.90;;;14.62;100.00;95794.16;10422558;28;1993;-85
2021/07/01 16:02:08;;;;;;;;;;;15.60;99.90;;;14.77;100.00;95785.78;10432458;28;1961;-81
2021/07/01 16:07:12;;;;;;;;;;;15.60;99.90;;;14.72;100.00;95793.19;10453413;28;1967;-83
2021/07/01 16:12:16;;;;;;;;;;;15.60;99.90;;;14.79;100.00;95801.72;10447920;28;2066;-85
2021/07/01 16:17:19;;;;;;;;;;;15.60;99.90;;;15.00;100.00;95794.81;10444150;28;1953;-86
2021/07/01 16:22:22;;;;;;;;;;;15.70;99.90;;;15.54;99.10;95793.16;10461429;28;1704;-85
2021/07/01 16:27:25;;;;;;;;;;;16.00;99.90;;;15.87;96.84;95795.72;10440255;28;1875;-86
2021/07/01 16:32:28;;;;;;;;;;;16.40;99.90;;;15.63;92.51;95791.34;10443806;28;1834;-85
2021/07/01 16:37:31;;;;;;;;;;;16.40;99.90;;;15.48;91.47;95791.66;10447095;28;1972;-85
2021/07/01 16:42:34;;;;;;;;;;;16.40;99.90;;;15.38;91.23;95794.59;10427832;28;1972;-85
2021/07/01 16:47:38;;;;;;;;;;;16.20;99.90;;;15.41;92.10;95789.38;10410819;28;1988;-84
2021/07/01 16:52:41;;;;;;;;;;;16.20;99.90;;;15.56;91.83;95800.97;10419435;28;2241;-85
2021/07/01 16:57:44;;;;;;;;;;;16.30;99.90;;;15.19;92.45;95802.03;10416529;28;1945;-85
2021/07/01 17:02:47;;;;;;;;;;;16.20;99.90;;;15.21;93.24;95799.84;10434006;28;1754;-88
2021/07/01 17:07:50;;;;;;;;;;;16.10;99.90;;;14.93;93.75;95789.00;10440235;28;1445;-85
2021/07/01 17:12:56;;;;;;;;;;;16.00;99.90;;;14.95;94.49;95799.50;10428187;28;1945;-86
2021/07/01 17:17:59;;;;;;;;;;;16.00;99.90;;;14.99;94.76;95803.22;10423355;28;1988;-86
2021/07/01 17:23:02;;;;;;;;;;;15.90;99.90;;;15.24;94.58;95800.00;10430972;28;2279;-87
2021/07/01 17:28:05;;;;;;;;;;;16.00;99.90;;;15.37;92.10;95803.81;10427512;28;1934;-86
2021/07/01 17:33:08;;;;;;;;;;;16.10;99.90;;;15.34;92.17;95804.44;10439978;28;1622;-81
2021/07/01 17:38:11;;;;;;;;;;;16.10;99.90;;;15.26;93.89;95807.84;10435366;28;1962;-81
2021/07/01 17:43:14;;;;;;;;;;;16.10;99.90;;;15.22;92.72;95812.25;10422249;28;1354;-81
2021/07/01 17:48:17;;;;;;;;;;;16.10;99.90;;;14.98;94.02;95817.88;10434347;28;1311;-80
2021/07/01 17:53:20;;;;;;;;;;;16.00;99.90;;;14.91;94.07;95818.28;10443387;28;1750;-80
2021/07/01 17:58:23;;;;;;;;;;;15.90;99.90;;;14.69;94.83;95827.03;10450510;28;1959;-81
2021/07/01 18:03:26;;;;;;;;;;;15.80;99.90;;;14.63;95.32;95832.84;10405898;28;1290;-82
2021/07/01 18:08:30;;;;;;;;;;;15.70;99.90;;;14.63;95.72;95840.97;10414397;28;1582;-81
2021/07/01 18:13:33;;;;;;;;;;;15.60;99.90;;;14.55;96.14;95828.94;10405427;28;1277;-80
2021/07/01 18:18:35;;;;;;;;;;;15.60;99.90;;;14.46;93.75;95833.41;10409412;28;1917;-80
2021/07/01 18:23:39;;;;;;;;;;;15.50;99.90;;;14.39;94.21;95841.88;10420187;28;1373;-80
2021/07/01 18:28:44;;;;;;;;;;;15.40;99.90;;;14.39;93.19;95843.81;10404251;28;1884;-80
2021/07/01 18:33:47;;;;;;;;;;;15.40;99.90;;;14.37;94.86;95844.06;10416503;28;1638;-81
2021/07/01 18:38:50;;;;;;;;;;;15.30;99.90;;;14.27;95.35;95846.97;10418953;28;1886;-81
2021/07/01 18:43:55;;;;;;;;;;;15.30;99.90;;;14.29;95.68;95850.16;10413060;28;1571;-79
2021/07/01 18:48:58;;;;;;;;;;;15.30;99.90;;;14.17;96.92;95852.50;10396883;28;1345;-83
2021/07/01 18:54:01;;;;;;;;;;;15.20;99.90;;;13.97;98.31;95851.72;10438225;28;2020;-80
2021/07/01 18:59:04;;;;;;;;;;;15.10;99.90;;;13.87;100.00;95857.28;10396857;28;1602;-78
2021/07/01 19:04:07;;;;;;;;;;;15.00;99.90;;;13.84;99.56;95855.16;10425138;28;1213;-80
2021/07/01 19:09:10;;;;;;;;;;;14.90;99.90;;;13.81;99.75;95853.06;10449544;28;1546;-80
2021/07/01 19:14:12;;;;;;;;;;;14.90;99.90;;;13.71;99.11;95850.47;10468054;28;1969;-78
2021/07/01 19:19:15;;;;;;;;;;;14.80;99.90;;;13.72;98.63;95857.50;10460408;28;1359;-79
2021/07/01 19:24:18;;;;;;;;;;;14.80;99.90;;;13.72;98.23;95863.69;10414473;28;1295;-80
2021/07/01 19:29:21;;;;;;;;;;;14.80;99.90;;;13.69;98.32;95860.78;10414330;28;1280;-80
2021/07/01 19:34:24;;;;;;;;;;;14.80;99.90;;;13.70;99.64;95881.31;10420584;28;1897;-80
2021/07/01 19:39:27;;;;;;;;;;;14.80;99.90;;;13.74;99.93;95882.31;10413342;28;1296;-82
2021/07/01 19:44:29;;;;;;;;;;;14.70;99.90;;;13.70;99.64;95882.09;10417831;28;1173;-79
2021/07/01 19:49:32;;;;;;;;;;;14.70;99.90;;;13.65;97.13;95890.25;10410325;28;1992;-82
2021/07/01 19:54:37;;;;;;;;;;;14.70;99.90;;;13.64;97.63;95888.66;10415030;28;1907;-81
2021/07/01 19:59:43;;;;;;;;;;;14.70;99.90;;;13.65;98.85;95889.47;10434349;28;1325;-83
2021/07/01 20:04:45;;;;;;;;;;;14.70;99.90;;;13.62;99.16;95890.06;10441274;28;1595;-79
2021/07/01 20:09:48;;;;;;;;;;;14.70;99.90;;;13.64;98.39;95898.66;10417167;28;2036;-78
2021/07/01 20:14:51;;;;;;;;;;;14.70;99.90;;;13.66;99.55;95891.06;10414973;28;1985;-77
2021/07/01 20:19:54;;;;;;;;;;;14.70;99.90;;;13.72;99.86;95887.22;10429314;28;2203;-79
2021/07/01 20:24:57;;;;;;;;;;;14.70;99.90;;;13.74;98.10;95898.50;10423332;28;2162;-79
2021/07/01 20:29:59;;;;;;;;;;;14.70;99.90;;;13.77;96.53;95895.25;10414430;28;2133;-82
2021/07/01 20:35:02;;;;;;;;;;;14.70;99.90;;;13.76;97.56;95899.84;10419359;28;2007;-79
2021/07/01 20:40:05;;;;;;;;;;;14.80;99.90;;;13.78;97.61;95899.56;10395404;28;2061;-80
2021/07/01 20:45:07;;;;;;;;;;;14.80;99.90;;;13.75;97.58;95895.53;10421017;28;2059;-80
2021/07/01 20:50:10;;;;;;;;;;;14.70;99.90;;;13.75;97.16;95895.53;10405993;28;2193;-78
2021/07/01 20:55:13;;;;;;;;;;;14.70;99.90;;;13.73;97.66;95899.63;10395733;28;2084;-82
2021/07/01 21:00:15;;;;;;;;;;;14.80;99.90;;;13.70;98.49;95902.91;10406077;28;1630;-81
2021/07/01 21:05:18;;;;;;;;;;;14.70;99.90;;;13.75;97.98;95892.03;10409914;28;1948;-79
2021/07/01 21:10:21;;;;;;;;;;;14.70;99.90;;;13.77;97.44;95900.66;10409678;28;1992;-78
2021/07/01 21:15:24;;;;;;;;;;;14.80;99.90;;;13.73;98.04;95902.31;10407799;28;1985;-78
2021/07/01 21:20:26;;;;;;;;;;;14.80;99.90;;;13.85;96.88;95883.78;10402409;28;2120;-78
2021/07/01 21:25:29;;;;;;;;;;;14.80;99.90;;;13.80;96.90;95894.66;10409989;28;1847;-78
2021/07/01 21:30:32;;;;;;;;;;;14.80;99.90;;;13.74;95.99;95902.06;10422972;28;1952;-79
2021/07/01 21:35:35;;;;;;;;;;;14.80;99.90;;;13.78;97.42;95899.56;10413523;28;2004;-79
2021/07/01 21:40:38;;;;;;;;;;;14.80;99.90;;;13.83;95.13;95894.09;10408904;28;2035;-79
2021/07/01 21:45:40;;;;;;;;;;;14.80;99.90;;;13.81;96.79;95896.28;10417993;28;2106;-79
2021/07/01 21:50:43;;;;;;;;;;;14.80;99.90;;;13.82;95.06;95900.59;10397998;28;1464;-80
2021/07/01 21:55:46;;;;;;;;;;;14.90;99.90;;;13.82;95.77;95895.19;10395235;28;1992;-79
2021/07/01 22:00:49;;;;;;;;;;;14.90;99.90;;;13.86;95.78;95890.78;10386595;28;1988;-78
2021/07/01 22:06:12;;;;;;;;;;;14.80;99.90;;;13.82;95.19;95883.56;10411473;28;1953;-78
2021/07/01 22:11:14;;;;;;;;;;;14.80;99.90;;;13.79;96.11;95895.75;10400448;28;2054;-80
2021/07/01 22:16:17;;;;;;;;;;;14.80;99.90;;;13.79;95.51;95903.84;10430274;28;2066;-80
2021/07/01 22:21:20;;;;;;;;;;;14.80;99.90;;;13.78;97.15;95900.34;10424733;28;2061;-79
2021/07/01 22:26:23;;;;;;;;;;;14.80;99.90;;;13.74;96.88;95901.22;10422941;28;2008;-80
2021/07/01 22:31:26;;;;;;;;;;;14.80;99.90;;;13.67;97.79;95898.06;10416512;28;2358;-80
2021/07/01 22:36:28;;;;;;;;;;;14.80;99.90;;;13.51;97.61;95895.56;10414034;28;2177;-81
2021/07/01 22:41:31;;;;;;;;;;;14.70;99.90;;;13.37;99.02;95889.28;10409237;28;2050;-79
2021/07/01 22:46:34;;;;;;;;;;;14.50;99.90;;;13.28;99.91;95890.97;10413782;28;2134;-79
2021/07/01 22:51:57;;;;;;;;;;;14.40;99.90;;;13.21;100.00;95880.53;10423735;28;2105;-80
2021/07/01 22:56:59;;;;;;;;;;;14.30;99.90;;;13.16;100.00;95874.34;10423977;28;2261;-81
2021/07/01 23:02:02;;;;;;;;;;;14.30;99.90;;;13.13;100.00;95872.25;10425481;28;1308;-80
2021/07/01 23:07:05;;;;;;;;;;;14.20;99.90;;;13.16;100.00;95867.06;10411181;28;1677;-77